This is the latest recevied weather packets stored in our database for station/object LRSM. If no packets are shown the sender has not sent any weather packets the latest 10 day(s).
| Time | Temp. | Humidity | Pressure | Rain* | Wind** | Luminosity | Snow |
|---|---|---|---|---|---|---|---|
| 1777443512 | 8.89° C | 37% | 1021 hPa | - | - | - | - |
| 1777442612 | 8.89° C | 37% | 1021 hPa | - | - | - | - |
| 1777441712 | 7.78° C | 40% | 1020 hPa | - | - | - | - |
| 1777440823 | 7.78° C | 40% | 1020 hPa | - | - | - | - |
| 1777439913 | 7.22° C | 42% | 1020 hPa | - | - | - | - |
| 1777439013 | 7.22° C | 42% | 1020 hPa | - | - | - | - |
| 1777438112 | 7.22° C | 39% | 1020 hPa | - | - | - | - |
| 1777437213 | 7.22° C | 39% | 1020 hPa | - | - | - | - |
| 1777436313 | 6.11° C | 42% | 1020 hPa | - | - | - | - |
| 1777435412 | 6.11° C | 42% | 1020 hPa | - | - | - | - |
| 1777434513 | 6.11° C | 42% | 1020 hPa | - | - | - | - |
| 1777433612 | 6.11° C | 42% | 1020 hPa | - | - | - | - |
| 1777432717 | 5° C | 45% | 1020 hPa | - | - | - | - |
| 1777431812 | 5° C | 45% | 1020 hPa | - | - | - | - |
| 1777430912 | 6.11° C | 46% | 1020 hPa | - | - | - | - |
| 1777430012 | 6.11° C | 46% | 1020 hPa | - | - | - | - |
| 1777429113 | 5° C | 53% | 1020 hPa | - | - | - | - |
| 1777428212 | 5° C | 53% | 1020 hPa | - | - | - | - |
| 1777427312 | 5° C | 53% | 1020 hPa | - | - | - | - |
| 1777426412 | 5° C | 53% | 1020 hPa | - | - | - | - |
| 1777425512 | 5° C | 49% | 1020 hPa | - | - | - | - |
| 1777424613 | 5° C | 49% | 1020 hPa | - | - | - | - |
| 1777423713 | 5° C | 49% | 1020 hPa | - | - | - | - |
| 1777422812 | 5° C | 49% | 1020 hPa | - | - | - | - |
| 1777421913 | 7.22° C | 42% | 1020 hPa | - | - | - | - |
* Rain since midnight (hover to see other rain measurements)
** Current wind speed in m/s (hover to see current wind gust speed)